createdAt,value
2022-08-19T00:01:08.318Z,99771.30
2022-08-19T00:06:10.762Z,99776.39
2022-08-19T00:11:15.091Z,99770.80
2022-08-19T00:16:25.982Z,99770.77
2022-08-19T00:21:29.414Z,99767.86
2022-08-19T00:26:31.713Z,99760.14
2022-08-19T00:31:34.063Z,99760.13
2022-08-19T00:36:36.568Z,99770.95
2022-08-19T00:41:39.257Z,99771.20
2022-08-19T00:46:43.885Z,99780.58
2022-08-19T00:51:47.990Z,99776.00
2022-08-19T00:56:51.578Z,99773.05
2022-08-19T01:01:57.576Z,99782.16
2022-08-19T01:07:00.404Z,99775.04
2022-08-19T01:12:03.827Z,99778.08
2022-08-19T01:17:07.038Z,99771.23
2022-08-19T01:22:16.628Z,99774.08
2022-08-19T01:27:19.319Z,99777.88
2022-08-19T01:32:33.298Z,99786.61
2022-08-19T01:37:40.951Z,99783.34
2022-08-19T01:42:43.404Z,99779.44
2022-08-19T01:47:52.767Z,99778.61
2022-08-19T01:53:07.816Z,99774.84
2022-08-19T01:58:15.941Z,99780.30
2022-08-19T02:03:18.341Z,99780.05
2022-08-19T02:08:20.657Z,99773.14
2022-08-19T02:13:26.344Z,99769.95
2022-08-19T02:18:28.948Z,99769.83
2022-08-19T02:23:32.249Z,99768.66
2022-08-19T02:28:34.623Z,99769.19
2022-08-19T02:33:36.922Z,99766.39
2022-08-19T02:38:40.536Z,99765.70
2022-08-19T02:43:44.405Z,99768.00
2022-08-19T02:49:06.343Z,99765.17
2022-08-19T02:54:09.600Z,99772.91
2022-08-19T02:59:12.471Z,99775.54
2022-08-19T03:04:16.369Z,99778.56
2022-08-19T03:09:20.433Z,99772.55
2022-08-19T03:14:23.987Z,99768.08
2022-08-19T03:19:26.410Z,99766.36
2022-08-19T03:24:28.810Z,99766.17
2022-08-19T03:29:32.770Z,99775.27
2022-08-19T03:34:35.485Z,99778.95
2022-08-19T03:39:38.547Z,99779.88
2022-08-19T03:44:43.050Z,99774.30
2022-08-19T03:49:45.542Z,99771.19
2022-08-19T03:54:47.902Z,99768.56
2022-08-19T03:59:50.205Z,99767.15
2022-08-19T04:04:54.132Z,99766.69
2022-08-19T04:09:56.592Z,99774.65
2022-08-19T04:14:59.286Z,99774.47
2022-08-19T04:20:02.038Z,99782.08
2022-08-19T04:25:09.737Z,99793.98
2022-08-19T04:30:12.458Z,99796.16
2022-08-19T04:35:18.522Z,99798.81
2022-08-19T04:40:25.440Z,99799.28
2022-08-19T04:45:27.782Z,99799.02
2022-08-19T04:50:41.999Z,99795.80
2022-08-19T04:55:44.407Z,99787.02
2022-08-19T05:00:46.835Z,99789.17
2022-08-19T05:05:49.587Z,99792.28
2022-08-19T05:10:52.511Z,99785.22
2022-08-19T05:15:56.372Z,99783.44
2022-08-19T05:21:01.858Z,99777.48
2022-08-19T05:26:04.819Z,99766.48
2022-08-19T05:31:07.162Z,99771.23
2022-08-19T05:36:09.918Z,99774.73
2022-08-19T05:41:13.488Z,99776.23
2022-08-19T05:46:19.004Z,99778.63
2022-08-19T05:51:30.292Z,99783.34
2022-08-19T05:56:32.687Z,99787.27
2022-08-19T06:01:35.638Z,99789.54
2022-08-19T06:06:37.961Z,99794.80
2022-08-19T06:11:44.329Z,99812.94
2022-08-19T06:16:46.989Z,99819.67
2022-08-19T06:21:50.367Z,99818.21
2022-08-19T06:26:56.678Z,99816.84
2022-08-19T06:32:01.720Z,99818.29
2022-08-19T06:37:04.108Z,99814.65
2022-08-19T06:42:09.113Z,99820.94
2022-08-19T06:47:23.870Z,99824.52
2022-08-19T06:52:27.666Z,99821.23
2022-08-19T06:57:32.386Z,99821.73
2022-08-19T07:02:38.294Z,99815.48
2022-08-19T07:07:43.939Z,99806.39
2022-08-19T07:12:51.051Z,99804.76
2022-08-19T07:17:53.489Z,99799.20
2022-08-19T07:22:56.131Z,99797.71
2022-08-19T07:27:58.948Z,99801.02
2022-08-19T07:33:04.276Z,99795.27
2022-08-19T07:38:08.296Z,99803.83
2022-08-19T07:43:14.090Z,99809.02
2022-08-19T07:48:19.879Z,99806.30
2022-08-19T07:53:22.577Z,99809.79
2022-08-19T07:58:24.939Z,99806.83
2022-08-19T08:03:31.032Z,99798.96
2022-08-19T08:08:36.520Z,99801.58
2022-08-19T08:13:39.162Z,99807.58
2022-08-19T08:18:43.145Z,99812.27
2022-08-19T08:23:45.561Z,99808.16
2022-08-19T08:28:49.525Z,99813.37
2022-08-19T08:33:52.181Z,99808.20
2022-08-19T08:43:57.849Z,99806.77
2022-08-19T08:49:08.256Z,99797.39
2022-08-19T08:54:12.655Z,99798.92
2022-08-19T08:59:16.192Z,99794.85
2022-08-19T09:04:18.997Z,99792.31
2022-08-19T09:09:31.927Z,99793.81
2022-08-19T09:14:54.046Z,99786.84
2022-08-19T09:20:03.273Z,99785.52
2022-08-19T09:25:07.964Z,99786.13
2022-08-19T09:30:22.549Z,99780.10
2022-08-19T09:35:26.349Z,99784.33
2022-08-19T09:40:34.379Z,99785.98
2022-08-19T09:45:40.231Z,99786.34
2022-08-19T09:50:51.577Z,99784.45
2022-08-19T09:55:56.235Z,99779.55
2022-08-19T10:00:59.520Z,99762.60
2022-08-19T10:06:03.118Z,99764.38
2022-08-19T10:11:27.840Z,99763.97
2022-08-19T10:16:30.094Z,99770.11
2022-08-19T10:21:33.564Z,99773.61
2022-08-19T10:26:37.952Z,99763.34
2022-08-19T10:32:01.342Z,99758.41
2022-08-19T10:37:03.948Z,99769.33
2022-08-19T10:42:11.303Z,99765.57
2022-08-19T10:47:24.568Z,99764.55
2022-08-19T10:52:32.673Z,99745.55
2022-08-19T11:02:58.421Z,99729.75
2022-08-19T11:08:00.746Z,99721.46
2022-08-19T11:13:05.303Z,99716.00
2022-08-19T11:18:13.330Z,99704.38
2022-08-19T11:23:15.908Z,99700.61
2022-08-19T11:28:18.212Z,99702.36
2022-08-19T11:33:20.535Z,99700.54
2022-08-19T11:38:22.856Z,99699.14
2022-08-19T11:43:25.573Z,99697.48
2022-08-19T11:48:27.869Z,99694.21
2022-08-19T11:53:30.768Z,99687.98
2022-08-19T11:58:33.113Z,99684.73
2022-08-19T12:03:36.403Z,99669.10
2022-08-19T12:08:39.109Z,99661.98
2022-08-19T12:13:46.680Z,99657.52
2022-08-19T12:18:49.386Z,99663.48
2022-08-19T12:23:55.695Z,99652.13
2022-08-19T12:29:00.319Z,99644.86
2022-08-19T12:34:03.339Z,99650.17
2022-08-19T12:39:06.502Z,99654.66
2022-08-19T12:44:14.153Z,99643.59
2022-08-19T12:49:50.257Z,99636.29
2022-08-19T12:54:39.788Z,99630.30
2022-08-19T12:59:42.250Z,99629.45
2022-08-19T13:04:44.647Z,99623.73
2022-08-19T13:09:46.943Z,99627.77
2022-08-19T13:14:51.788Z,99629.19
2022-08-19T13:19:54.195Z,99630.13
2022-08-19T13:24:56.622Z,99629.40
2022-08-19T13:30:01.914Z,99614.56
2022-08-19T13:35:04.501Z,99604.81
2022-08-19T13:40:08.340Z,99595.17
2022-08-19T13:45:11.418Z,99600.59
2022-08-19T13:50:15.720Z,99600.94
2022-08-19T13:55:22.169Z,99600.70
2022-08-19T14:00:28.397Z,99603.28
2022-08-19T14:05:31.707Z,99611.29
2022-08-19T14:10:34.300Z,99605.10
2022-08-19T14:15:38.093Z,99608.08
2022-08-19T14:20:40.482Z,99604.10
2022-08-19T14:25:43.715Z,99593.19
2022-08-19T14:30:46.092Z,99593.36
2022-08-19T14:35:48.406Z,99593.02
2022-08-19T14:40:52.757Z,99590.71
2022-08-19T14:45:57.839Z,99589.95
2022-08-19T14:51:00.187Z,99587.09
2022-08-19T14:56:02.773Z,99587.48
2022-08-19T15:01:05.585Z,99586.34
2022-08-19T15:06:09.121Z,99591.16
2022-08-19T15:11:17.354Z,99593.89
2022-08-19T15:16:19.979Z,99593.82
2022-08-19T15:21:27.303Z,99596.95
2022-08-19T15:26:33.075Z,99597.94
2022-08-19T15:31:38.805Z,99594.00
2022-08-19T15:36:41.293Z,99605.26
2022-08-19T15:41:45.268Z,99598.64
2022-08-19T15:46:48.852Z,99595.52
2022-08-19T15:51:53.942Z,99594.73
2022-08-19T15:56:59.387Z,99591.20
2022-08-19T16:02:04.710Z,99593.86
2022-08-19T16:07:12.805Z,99592.40
2022-08-19T16:12:16.618Z,99596.85
2022-08-19T16:17:18.954Z,99592.20
2022-08-19T16:22:22.168Z,99588.73
2022-08-19T16:27:24.784Z,99587.37
2022-08-19T16:32:27.184Z,99578.56
2022-08-19T16:37:29.740Z,99571.28
2022-08-19T16:42:34.216Z,99572.08
2022-08-19T16:47:36.617Z,99572.48
2022-08-19T16:52:38.972Z,99574.79
2022-08-19T16:57:41.313Z,99577.56
2022-08-19T17:02:44.026Z,99582.78
2022-08-19T17:07:46.427Z,99586.19
2022-08-19T17:12:48.923Z,99592.84
2022-08-19T17:17:52.687Z,99600.44
2022-08-19T17:22:56.595Z,99599.38
2022-08-19T17:28:05.704Z,99602.66
2022-08-19T17:33:08.116Z,99608.75
2022-08-19T17:38:14.218Z,99622.25
2022-08-19T17:43:17.217Z,99614.45
2022-08-19T17:48:39.245Z,99611.60
2022-08-19T17:53:41.609Z,99608.45
2022-08-19T17:58:46.001Z,99611.80
2022-08-19T18:03:57.000Z,99618.60
2022-08-19T18:08:59.579Z,99623.58
2022-08-19T18:14:02.208Z,99625.88
2022-08-19T18:19:04.794Z,99633.77
2022-08-19T18:24:07.200Z,99638.83
2022-08-19T18:29:09.605Z,99640.96
2022-08-19T18:34:11.932Z,99644.33
2022-08-19T18:39:17.353Z,99643.12
2022-08-19T18:44:23.628Z,99641.63
2022-08-19T18:49:31.984Z,99644.83
2022-08-19T18:54:35.540Z,99638.45
2022-08-19T18:59:38.591Z,99635.19
2022-08-19T19:04:41.411Z,99634.16
2022-08-19T19:09:45.047Z,99631.08
2022-08-19T19:14:49.501Z,99630.28
2022-08-19T19:19:52.448Z,99637.65
2022-08-19T19:24:55.361Z,99641.71
2022-08-19T19:29:57.769Z,99639.27
2022-08-19T19:35:00.116Z,99638.10
2022-08-19T19:40:02.602Z,99638.30
2022-08-19T19:45:05.224Z,99640.02
2022-08-19T19:50:16.056Z,99634.48
2022-08-19T19:55:19.197Z,99634.06
2022-08-19T20:00:21.990Z,99632.49
2022-08-19T20:05:24.730Z,99635.41
2022-08-19T20:10:27.991Z,99636.79
2022-08-19T20:15:31.962Z,99633.90
2022-08-19T20:20:34.824Z,99635.34
2022-08-19T20:25:37.888Z,99640.40
2022-08-19T20:30:46.498Z,99639.42
2022-08-19T20:35:50.365Z,99640.98
2022-08-19T20:40:52.903Z,99635.34
2022-08-19T20:45:55.859Z,99638.90
2022-08-19T20:50:58.443Z,99640.81
2022-08-19T20:56:00.761Z,99653.04
2022-08-19T21:01:04.046Z,99653.77
2022-08-19T21:06:06.971Z,99661.16
2022-08-19T21:11:10.385Z,99662.13
2022-08-19T21:16:12.774Z,99669.84
2022-08-19T21:21:15.753Z,99669.02
2022-08-19T21:26:18.187Z,99659.04
2022-08-19T21:31:20.997Z,99662.73
2022-08-19T21:36:23.326Z,99659.20
2022-08-19T21:41:25.783Z,99656.83
2022-08-19T21:46:38.573Z,99654.31
2022-08-19T21:51:41.286Z,99657.03
2022-08-19T21:56:43.579Z,99651.15
2022-08-19T22:01:49.666Z,99656.19
2022-08-19T22:06:56.365Z,99653.79
2022-08-19T22:11:58.776Z,99649.59
2022-08-19T22:17:01.126Z,99653.59
2022-08-19T22:22:03.665Z,99664.63
2022-08-19T22:27:06.695Z,99678.02
2022-08-19T22:32:26.999Z,99671.48
2022-08-19T22:37:31.627Z,99662.73
2022-08-19T22:42:33.938Z,99653.73
2022-08-19T22:47:39.384Z,99642.27
2022-08-19T22:52:52.035Z,99628.05
2022-08-19T22:57:55.521Z,99634.84
2022-08-19T23:02:58.357Z,99653.28
2022-08-19T23:08:00.710Z,99659.52
2022-08-19T23:13:03.146Z,99666.70
2022-08-19T23:18:05.518Z,99655.27
2022-08-19T23:23:09.455Z,99684.20
2022-08-19T23:28:15.072Z,99704.15
2022-08-19T23:33:24.100Z,99715.13
2022-08-19T23:38:28.003Z,99709.89
2022-08-19T23:43:30.893Z,99711.33
2022-08-19T23:48:34.910Z,99726.61
2022-08-19T23:53:40.677Z,99733.03
2022-08-19T23:58:43.029Z,99749.00
